map of BJZ home
BJZ - Airport
Location
City:  Badajoz, Extremadura, Spain
Name:Talavera La Real
ICAO:LEBZ
IATA:BJZ

Details
Type:Airport (Aerodrome, Airfield)
Use:Public/Civil, Military
Latitude:3853'28"N (38.891250)
Longitude:649'17"W (-6.821332)
Datum:WGS 1984
Elevation:609 ft (186 m)
Variation:1.36W (WMM2015v2 magnetic declination)
0.16 annual change
Runways:1
Longest:9350 × 197 ft (2850 × 60 m), paved

Time
Time Zone:UTC+1 (DST+2)
Local Time:

Weather
METAR:LEBZ 041400Z 01002KT CAVOK 12/01 Q1029
TAF:LEBZ 041100Z 0412/0512 05005KT CAVOK TX12/0416Z TN02/0507Z= TAF LESA 041100Z 0412/0512 VRB04KT CAVOK TX11/0415Z TNM04/0507Z PROB30
TEMPO 0503/0508 4000 BR NSC

Related Locations
Nearby:
Farthest:NPL: 12388 mi / 19936 km
New Plymouth, TKI, NZ

Find:

   beyond  
but within

Other Information
Maps:
NOTAMs:
Links:
Sources:

  
  • flag of Spain
  • flag of Extremadura
  

Sectional Chart

Flight Planning
at skyvector.com

Satellite Image

Google Maps Satellite view

 

Copyright © 2004-2019 Karl L. Swartz. All rights reserved.
The Great Circle Mapper name and logo are trademarks of the Great Circle Mapper.
All other trademarks mentioned herein belong to their respective owners.
Please see credits for attibutions and further copyright information.

  Follow gcmap on Facebook Follow gcmap on Twitter GCmap on LinkedIn

hCard Microformat

Geo Microformat